sensor_id;sensor_type;location;lat;lon;timestamp;P1;durP1;ratioP1;P2;durP2;ratioP2
14191;SDS011;7177;48.572;7.838;2024-03-25T00:01:58;6.30;;;4.30;;
14191;SDS011;7177;48.572;7.838;2024-03-25T00:04:24;8.50;;;4.27;;
14191;SDS011;7177;48.572;7.838;2024-03-25T00:06:49;9.97;;;4.30;;
14191;SDS011;7177;48.572;7.838;2024-03-25T00:09:16;9.98;;;4.85;;
14191;SDS011;7177;48.572;7.838;2024-03-25T00:11:42;6.83;;;4.10;;
14191;SDS011;7177;48.572;7.838;2024-03-25T00:14:08;7.23;;;4.27;;
14191;SDS011;7177;48.572;7.838;2024-03-25T00:16:34;6.80;;;4.43;;
14191;SDS011;7177;48.572;7.838;2024-03-25T00:19:00;6.07;;;4.22;;
14191;SDS011;7177;48.572;7.838;2024-03-25T00:21:26;5.82;;;4.20;;
14191;SDS011;7177;48.572;7.838;2024-03-25T00:23:51;8.23;;;3.60;;
14191;SDS011;7177;48.572;7.838;2024-03-25T00:26:17;8.17;;;5.00;;
14191;SDS011;7177;48.572;7.838;2024-03-25T00:28:43;6.17;;;4.33;;
14191;SDS011;7177;48.572;7.838;2024-03-25T00:31:08;7.17;;;4.00;;
14191;SDS011;7177;48.572;7.838;2024-03-25T00:33:34;8.03;;;4.60;;
14191;SDS011;7177;48.572;7.838;2024-03-25T00:36:00;7.40;;;4.30;;
14191;SDS011;7177;48.572;7.838;2024-03-25T00:38:26;6.50;;;4.10;;
14191;SDS011;7177;48.572;7.838;2024-03-25T00:40:51;7.77;;;4.27;;
14191;SDS011;7177;48.572;7.838;2024-03-25T00:43:17;10.20;;;4.03;;
14191;SDS011;7177;48.572;7.838;2024-03-25T00:45:43;7.93;;;3.90;;
14191;SDS011;7177;48.572;7.838;2024-03-25T00:48:08;8.07;;;4.07;;
14191;SDS011;7177;48.572;7.838;2024-03-25T00:50:34;6.80;;;3.67;;
14191;SDS011;7177;48.572;7.838;2024-03-25T00:52:59;6.77;;;4.00;;
14191;SDS011;7177;48.572;7.838;2024-03-25T00:55:25;7.07;;;3.67;;
14191;SDS011;7177;48.572;7.838;2024-03-25T00:57:51;6.03;;;3.83;;
14191;SDS011;7177;48.572;7.838;2024-03-25T01:00:16;5.63;;;3.80;;
14191;SDS011;7177;48.572;7.838;2024-03-25T01:02:42;4.80;;;3.50;;
14191;SDS011;7177;48.572;7.838;2024-03-25T01:05:08;8.10;;;3.80;;
14191;SDS011;7177;48.572;7.838;2024-03-25T01:07:34;6.73;;;3.30;;
14191;SDS011;7177;48.572;7.838;2024-03-25T01:10:00;7.43;;;3.60;;
14191;SDS011;7177;48.572;7.838;2024-03-25T01:12:26;5.00;;;3.47;;
14191;SDS011;7177;48.572;7.838;2024-03-25T01:14:52;5.30;;;3.87;;
14191;SDS011;7177;48.572;7.838;2024-03-25T01:17:18;7.13;;;3.92;;
14191;SDS011;7177;48.572;7.838;2024-03-25T01:19:43;4.23;;;3.03;;
14191;SDS011;7177;48.572;7.838;2024-03-25T01:22:09;5.57;;;3.53;;
14191;SDS011;7177;48.572;7.838;2024-03-25T01:24:34;6.10;;;3.30;;
14191;SDS011;7177;48.572;7.838;2024-03-25T01:27:00;4.77;;;3.27;;
14191;SDS011;7177;48.572;7.838;2024-03-25T01:29:26;7.47;;;3.93;;
14191;SDS011;7177;48.572;7.838;2024-03-25T01:31:52;5.63;;;3.63;;
14191;SDS011;7177;48.572;7.838;2024-03-25T01:34:17;5.33;;;3.23;;
14191;SDS011;7177;48.572;7.838;2024-03-25T01:36:43;4.63;;;3.40;;
14191;SDS011;7177;48.572;7.838;2024-03-25T01:39:08;4.73;;;3.40;;
14191;SDS011;7177;48.572;7.838;2024-03-25T01:41:34;7.53;;;3.50;;
14191;SDS011;7177;48.572;7.838;2024-03-25T01:44:00;4.20;;;3.10;;
14191;SDS011;7177;48.572;7.838;2024-03-25T01:46:27;6.95;;;3.78;;
14191;SDS011;7177;48.572;7.838;2024-03-25T01:48:52;4.53;;;3.17;;
14191;SDS011;7177;48.572;7.838;2024-03-25T01:51:19;7.05;;;3.58;;
14191;SDS011;7177;48.572;7.838;2024-03-25T01:53:47;5.90;;;3.47;;
14191;SDS011;7177;48.572;7.838;2024-03-25T01:56:13;5.10;;;3.45;;
14191;SDS011;7177;48.572;7.838;2024-03-25T01:58:40;8.82;;;3.35;;
14191;SDS011;7177;48.572;7.838;2024-03-25T02:01:06;6.20;;;3.47;;
14191;SDS011;7177;48.572;7.838;2024-03-25T02:03:35;6.28;;;3.72;;
14191;SDS011;7177;48.572;7.838;2024-03-25T02:06:02;6.03;;;3.60;;
14191;SDS011;7177;48.572;7.838;2024-03-25T02:08:33;6.80;;;3.80;;
14191;SDS011;7177;48.572;7.838;2024-03-25T02:10:59;7.90;;;4.13;;
14191;SDS011;7177;48.572;7.838;2024-03-25T02:13:26;4.45;;;3.78;;
14191;SDS011;7177;48.572;7.838;2024-03-25T02:15:52;5.20;;;4.03;;
14191;SDS011;7177;48.572;7.838;2024-03-25T02:18:18;5.90;;;3.22;;
14191;SDS011;7177;48.572;7.838;2024-03-25T02:20:44;5.37;;;3.60;;
14191;SDS011;7177;48.572;7.838;2024-03-25T02:23:10;9.27;;;3.83;;
14191;SDS011;7177;48.572;7.838;2024-03-25T02:25:37;9.57;;;4.13;;
14191;SDS011;7177;48.572;7.838;2024-03-25T02:28:04;8.38;;;3.63;;
14191;SDS011;7177;48.572;7.838;2024-03-25T02:30:29;6.83;;;3.97;;
14191;SDS011;7177;48.572;7.838;2024-03-25T02:32:55;8.73;;;4.00;;
14191;SDS011;7177;48.572;7.838;2024-03-25T02:35:21;6.20;;;3.70;;
14191;SDS011;7177;48.572;7.838;2024-03-25T02:37:49;5.13;;;3.50;;
14191;SDS011;7177;48.572;7.838;2024-03-25T02:40:16;6.47;;;3.85;;
14191;SDS011;7177;48.572;7.838;2024-03-25T02:42:42;6.30;;;4.07;;
14191;SDS011;7177;48.572;7.838;2024-03-25T02:45:08;5.87;;;4.10;;
14191;SDS011;7177;48.572;7.838;2024-03-25T02:47:34;6.40;;;3.97;;
14191;SDS011;7177;48.572;7.838;2024-03-25T02:49:59;6.40;;;3.77;;
14191;SDS011;7177;48.572;7.838;2024-03-25T02:52:25;6.87;;;4.10;;
14191;SDS011;7177;48.572;7.838;2024-03-25T02:54:51;6.33;;;3.77;;
14191;SDS011;7177;48.572;7.838;2024-03-25T02:57:16;8.03;;;4.43;;
14191;SDS011;7177;48.572;7.838;2024-03-25T02:59:42;6.80;;;4.23;;
14191;SDS011;7177;48.572;7.838;2024-03-25T03:02:07;7.27;;;3.80;;
14191;SDS011;7177;48.572;7.838;2024-03-25T03:04:33;7.23;;;4.47;;
14191;SDS011;7177;48.572;7.838;2024-03-25T03:06:58;9.47;;;4.47;;
14191;SDS011;7177;48.572;7.838;2024-03-25T03:09:24;6.17;;;4.43;;
14191;SDS011;7177;48.572;7.838;2024-03-25T03:11:49;12.67;;;4.67;;
14191;SDS011;7177;48.572;7.838;2024-03-25T03:14:16;7.28;;;4.32;;
14191;SDS011;7177;48.572;7.838;2024-03-25T03:16:42;12.93;;;5.23;;
14191;SDS011;7177;48.572;7.838;2024-03-25T03:19:07;9.00;;;3.90;;
14191;SDS011;7177;48.572;7.838;2024-03-25T03:21:33;7.03;;;4.50;;
14191;SDS011;7177;48.572;7.838;2024-03-25T03:23:58;7.97;;;4.37;;
14191;SDS011;7177;48.572;7.838;2024-03-25T03:26:24;11.27;;;4.80;;
14191;SDS011;7177;48.572;7.838;2024-03-25T03:28:52;6.35;;;4.53;;
14191;SDS011;7177;48.572;7.838;2024-03-25T03:31:18;7.13;;;4.38;;
14191;SDS011;7177;48.572;7.838;2024-03-25T03:33:46;8.52;;;5.07;;
14191;SDS011;7177;48.572;7.838;2024-03-25T03:36:12;8.05;;;5.30;;
14191;SDS011;7177;48.572;7.838;2024-03-25T03:38:39;12.00;;;5.10;;
14191;SDS011;7177;48.572;7.838;2024-03-25T03:41:04;10.90;;;5.23;;
14191;SDS011;7177;48.572;7.838;2024-03-25T03:43:30;10.00;;;5.07;;
14191;SDS011;7177;48.572;7.838;2024-03-25T03:45:55;8.37;;;4.63;;
14191;SDS011;7177;48.572;7.838;2024-03-25T03:48:20;9.67;;;4.70;;
14191;SDS011;7177;48.572;7.838;2024-03-25T03:50:46;6.57;;;4.70;;
14191;SDS011;7177;48.572;7.838;2024-03-25T03:53:11;7.50;;;4.67;;
14191;SDS011;7177;48.572;7.838;2024-03-25T03:55:37;7.80;;;5.10;;
14191;SDS011;7177;48.572;7.838;2024-03-25T03:58:03;8.63;;;5.40;;
14191;SDS011;7177;48.572;7.838;2024-03-25T04:00:29;11.25;;;5.35;;
14191;SDS011;7177;48.572;7.838;2024-03-25T04:02:58;9.15;;;5.20;;
14191;SDS011;7177;48.572;7.838;2024-03-25T04:05:24;6.30;;;4.90;;
14191;SDS011;7177;48.572;7.838;2024-03-25T04:07:53;8.75;;;5.25;;
14191;SDS011;7177;48.572;7.838;2024-03-25T04:10:18;9.40;;;4.57;;
14191;SDS011;7177;48.572;7.838;2024-03-25T04:12:44;7.17;;;5.00;;
14191;SDS011;7177;48.572;7.838;2024-03-25T04:15:09;9.03;;;5.20;;
14191;SDS011;7177;48.572;7.838;2024-03-25T04:17:40;11.13;;;5.05;;
14191;SDS011;7177;48.572;7.838;2024-03-25T04:20:05;7.77;;;5.17;;
14191;SDS011;7177;48.572;7.838;2024-03-25T04:22:35;12.32;;;4.88;;
14191;SDS011;7177;48.572;7.838;2024-03-25T04:25:01;9.03;;;4.83;;
14191;SDS011;7177;48.572;7.838;2024-03-25T04:27:27;7.60;;;4.80;;
14191;SDS011;7177;48.572;7.838;2024-03-25T04:29:52;10.03;;;5.13;;
14191;SDS011;7177;48.572;7.838;2024-03-25T04:32:18;8.17;;;5.43;;
14191;SDS011;7177;48.572;7.838;2024-03-25T04:34:43;9.83;;;5.43;;
14191;SDS011;7177;48.572;7.838;2024-03-25T04:37:09;9.17;;;4.53;;
14191;SDS011;7177;48.572;7.838;2024-03-25T04:39:35;11.73;;;4.33;;
14191;SDS011;7177;48.572;7.838;2024-03-25T04:42:00;7.20;;;4.50;;
14191;SDS011;7177;48.572;7.838;2024-03-25T04:44:27;9.73;;;4.57;;
14191;SDS011;7177;48.572;7.838;2024-03-25T04:46:52;9.13;;;5.03;;
14191;SDS011;7177;48.572;7.838;2024-03-25T04:49:18;9.13;;;5.33;;
14191;SDS011;7177;48.572;7.838;2024-03-25T04:51:43;8.73;;;4.93;;
14191;SDS011;7177;48.572;7.838;2024-03-25T04:54:09;7.90;;;4.40;;
14191;SDS011;7177;48.572;7.838;2024-03-25T04:56:34;10.60;;;5.23;;
14191;SDS011;7177;48.572;7.838;2024-03-25T04:59:00;8.90;;;4.60;;
14191;SDS011;7177;48.572;7.838;2024-03-25T05:01:26;9.73;;;4.95;;
14191;SDS011;7177;48.572;7.838;2024-03-25T05:03:55;8.27;;;5.28;;
14191;SDS011;7177;48.572;7.838;2024-03-25T05:06:20;8.17;;;5.00;;
14191;SDS011;7177;48.572;7.838;2024-03-25T05:08:46;9.30;;;5.47;;
14191;SDS011;7177;48.572;7.838;2024-03-25T05:11:11;7.53;;;5.13;;
14191;SDS011;7177;48.572;7.838;2024-03-25T05:13:37;8.33;;;5.30;;
14191;SDS011;7177;48.572;7.838;2024-03-25T05:16:02;9.67;;;5.40;;
14191;SDS011;7177;48.572;7.838;2024-03-25T05:18:28;11.75;;;5.85;;
14191;SDS011;7177;48.572;7.838;2024-03-25T05:20:54;10.23;;;6.10;;
14191;SDS011;7177;48.572;7.838;2024-03-25T05:23:19;9.30;;;6.27;;
14191;SDS011;7177;48.572;7.838;2024-03-25T05:25:45;9.40;;;5.50;;
14191;SDS011;7177;48.572;7.838;2024-03-25T05:28:10;9.70;;;5.23;;
14191;SDS011;7177;48.572;7.838;2024-03-25T05:30:38;8.05;;;5.32;;
14191;SDS011;7177;48.572;7.838;2024-03-25T05:33:04;7.10;;;5.30;;
14191;SDS011;7177;48.572;7.838;2024-03-25T05:35:29;7.03;;;4.77;;
14191;SDS011;7177;48.572;7.838;2024-03-25T05:37:58;11.18;;;5.47;;
14191;SDS011;7177;48.572;7.838;2024-03-25T05:40:23;6.93;;;4.70;;
14191;SDS011;7177;48.572;7.838;2024-03-25T05:42:49;7.07;;;4.83;;
14191;SDS011;7177;48.572;7.838;2024-03-25T05:45:14;7.30;;;4.63;;
14191;SDS011;7177;48.572;7.838;2024-03-25T05:47:40;7.13;;;4.87;;
14191;SDS011;7177;48.572;7.838;2024-03-25T05:50:06;6.93;;;5.07;;
14191;SDS011;7177;48.572;7.838;2024-03-25T05:52:33;8.68;;;5.03;;
14191;SDS011;7177;48.572;7.838;2024-03-25T05:54:58;8.13;;;5.30;;
14191;SDS011;7177;48.572;7.838;2024-03-25T05:57:24;8.23;;;5.20;;
14191;SDS011;7177;48.572;7.838;2024-03-25T05:59:49;8.07;;;5.57;;
14191;SDS011;7177;48.572;7.838;2024-03-25T06:02:15;13.37;;;5.90;;
14191;SDS011;7177;48.572;7.838;2024-03-25T06:04:40;9.13;;;6.33;;
14191;SDS011;7177;48.572;7.838;2024-03-25T06:07:06;12.37;;;7.70;;
14191;SDS011;7177;48.572;7.838;2024-03-25T06:09:31;10.47;;;6.50;;
14191;SDS011;7177;48.572;7.838;2024-03-25T06:11:57;13.43;;;7.53;;
14191;SDS011;7177;48.572;7.838;2024-03-25T06:14:22;12.10;;;7.80;;
14191;SDS011;7177;48.572;7.838;2024-03-25T06:16:48;11.65;;;7.47;;
14191;SDS011;7177;48.572;7.838;2024-03-25T06:19:14;14.00;;;7.13;;
14191;SDS011;7177;48.572;7.838;2024-03-25T06:21:40;14.60;;;6.63;;
14191;SDS011;7177;48.572;7.838;2024-03-25T06:24:07;11.40;;;6.45;;
14191;SDS011;7177;48.572;7.838;2024-03-25T06:26:33;11.67;;;6.37;;
14191;SDS011;7177;48.572;7.838;2024-03-25T06:28:59;10.05;;;6.00;;
14191;SDS011;7177;48.572;7.838;2024-03-25T06:31:25;8.60;;;5.20;;
14191;SDS011;7177;48.572;7.838;2024-03-25T06:34:09;7.78;;;5.90;;
14191;SDS011;7177;48.572;7.838;2024-03-25T06:36:46;6.65;;;5.25;;
14191;SDS011;7177;48.572;7.838;2024-03-25T06:39:15;6.93;;;5.15;;
14191;SDS011;7177;48.572;7.838;2024-03-25T06:41:41;7.10;;;4.90;;
14191;SDS011;7177;48.572;7.838;2024-03-25T06:44:06;7.00;;;4.93;;
14191;SDS011;7177;48.572;7.838;2024-03-25T06:46:32;9.67;;;5.50;;
14191;SDS011;7177;48.572;7.838;2024-03-25T06:48:58;7.23;;;4.97;;
14191;SDS011;7177;48.572;7.838;2024-03-25T06:51:24;8.75;;;5.03;;
14191;SDS011;7177;48.572;7.838;2024-03-25T06:53:50;8.07;;;5.10;;
14191;SDS011;7177;48.572;7.838;2024-03-25T06:56:15;6.97;;;4.33;;
14191;SDS011;7177;48.572;7.838;2024-03-25T06:58:41;6.80;;;4.63;;
14191;SDS011;7177;48.572;7.838;2024-03-25T07:01:08;8.00;;;4.60;;
14191;SDS011;7177;48.572;7.838;2024-03-25T07:03:34;5.60;;;4.30;;
14191;SDS011;7177;48.572;7.838;2024-03-25T07:06:00;6.32;;;4.45;;
14191;SDS011;7177;48.572;7.838;2024-03-25T07:08:27;5.18;;;4.25;;
14191;SDS011;7177;48.572;7.838;2024-03-25T07:10:53;5.57;;;3.92;;
14191;SDS011;7177;48.572;7.838;2024-03-25T07:13:19;5.90;;;3.92;;
14191;SDS011;7177;48.572;7.838;2024-03-25T07:15:45;9.10;;;3.97;;
14191;SDS011;7177;48.572;7.838;2024-03-25T07:18:11;7.23;;;4.10;;
14191;SDS011;7177;48.572;7.838;2024-03-25T07:20:38;8.17;;;3.83;;
14191;SDS011;7177;48.572;7.838;2024-03-25T07:23:05;5.83;;;3.97;;
14191;SDS011;7177;48.572;7.838;2024-03-25T07:25:31;5.77;;;3.50;;
14191;SDS011;7177;48.572;7.838;2024-03-25T07:27:56;6.00;;;3.63;;
14191;SDS011;7177;48.572;7.838;2024-03-25T07:30:22;7.00;;;3.87;;
14191;SDS011;7177;48.572;7.838;2024-03-25T07:32:52;8.43;;;4.40;;
14191;SDS011;7177;48.572;7.838;2024-03-25T07:35:21;6.83;;;4.30;;
14191;SDS011;7177;48.572;7.838;2024-03-25T07:37:47;5.87;;;3.47;;
14191;SDS011;7177;48.572;7.838;2024-03-25T07:40:19;4.47;;;3.50;;
14191;SDS011;7177;48.572;7.838;2024-03-25T07:42:46;4.10;;;3.30;;
14191;SDS011;7177;48.572;7.838;2024-03-25T07:45:11;6.57;;;4.00;;
14191;SDS011;7177;48.572;7.838;2024-03-25T07:47:37;7.83;;;3.50;;
14191;SDS011;7177;48.572;7.838;2024-03-25T07:50:03;4.10;;;3.03;;
14191;SDS011;7177;48.572;7.838;2024-03-25T07:52:29;5.70;;;2.87;;
14191;SDS011;7177;48.572;7.838;2024-03-25T07:54:54;4.93;;;3.20;;
14191;SDS011;7177;48.572;7.838;2024-03-25T07:57:20;5.13;;;3.03;;
14191;SDS011;7177;48.572;7.838;2024-03-25T07:59:46;4.80;;;2.93;;
14191;SDS011;7177;48.572;7.838;2024-03-25T08:02:12;5.33;;;2.80;;
14191;SDS011;7177;48.572;7.838;2024-03-25T08:04:37;6.13;;;3.00;;
14191;SDS011;7177;48.572;7.838;2024-03-25T08:07:03;5.00;;;3.03;;
14191;SDS011;7177;48.572;7.838;2024-03-25T08:09:29;3.70;;;2.90;;
14191;SDS011;7177;48.572;7.838;2024-03-25T08:11:54;3.83;;;2.60;;
14191;SDS011;7177;48.572;7.838;2024-03-25T08:14:20;4.47;;;2.33;;
14191;SDS011;7177;48.572;7.838;2024-03-25T08:16:46;3.20;;;2.40;;
14191;SDS011;7177;48.572;7.838;2024-03-25T08:19:11;4.43;;;2.50;;
14191;SDS011;7177;48.572;7.838;2024-03-25T08:21:37;3.77;;;2.40;;
14191;SDS011;7177;48.572;7.838;2024-03-25T08:24:02;3.97;;;2.47;;
14191;SDS011;7177;48.572;7.838;2024-03-25T08:26:28;3.97;;;2.77;;
14191;SDS011;7177;48.572;7.838;2024-03-25T08:28:54;2.60;;;2.20;;
14191;SDS011;7177;48.572;7.838;2024-03-25T08:31:20;4.27;;;2.50;;
14191;SDS011;7177;48.572;7.838;2024-03-25T08:33:45;4.23;;;2.43;;
14191;SDS011;7177;48.572;7.838;2024-03-25T08:36:11;3.47;;;2.20;;
14191;SDS011;7177;48.572;7.838;2024-03-25T08:38:36;5.63;;;2.77;;
14191;SDS011;7177;48.572;7.838;2024-03-25T08:41:03;6.83;;;2.50;;
14191;SDS011;7177;48.572;7.838;2024-03-25T08:43:29;3.67;;;2.43;;
14191;SDS011;7177;48.572;7.838;2024-03-25T08:45:54;5.70;;;2.23;;
14191;SDS011;7177;48.572;7.838;2024-03-25T08:48:20;3.40;;;1.80;;
14191;SDS011;7177;48.572;7.838;2024-03-25T08:50:45;5.70;;;2.20;;
14191;SDS011;7177;48.572;7.838;2024-03-25T08:53:11;3.47;;;2.30;;
14191;SDS011;7177;48.572;7.838;2024-03-25T08:55:36;3.40;;;2.30;;
14191;SDS011;7177;48.572;7.838;2024-03-25T08:58:02;2.90;;;1.90;;
14191;SDS011;7177;48.572;7.838;2024-03-25T09:00:28;3.20;;;2.37;;
14191;SDS011;7177;48.572;7.838;2024-03-25T09:02:53;3.40;;;2.10;;
14191;SDS011;7177;48.572;7.838;2024-03-25T09:05:19;3.43;;;2.20;;
14191;SDS011;7177;48.572;7.838;2024-03-25T09:07:46;5.03;;;1.93;;
14191;SDS011;7177;48.572;7.838;2024-03-25T09:10:16;4.13;;;2.40;;
14191;SDS011;7177;48.572;7.838;2024-03-25T09:13:00;3.60;;;1.87;;
14191;SDS011;7177;48.572;7.838;2024-03-25T09:15:26;8.53;;;2.60;;
14191;SDS011;7177;48.572;7.838;2024-03-25T09:17:51;4.93;;;2.30;;
14191;SDS011;7177;48.572;7.838;2024-03-25T09:20:17;4.70;;;2.03;;
14191;SDS011;7177;48.572;7.838;2024-03-25T09:22:43;4.93;;;2.00;;
14191;SDS011;7177;48.572;7.838;2024-03-25T09:25:09;5.00;;;2.03;;
14191;SDS011;7177;48.572;7.838;2024-03-25T09:27:34;1.93;;;1.63;;
14191;SDS011;7177;48.572;7.838;2024-03-25T09:30:00;6.37;;;2.40;;
14191;SDS011;7177;48.572;7.838;2024-03-25T09:32:26;4.07;;;2.33;;
14191;SDS011;7177;48.572;7.838;2024-03-25T09:34:52;2.60;;;1.90;;
14191;SDS011;7177;48.572;7.838;2024-03-25T09:37:17;3.40;;;2.00;;
14191;SDS011;7177;48.572;7.838;2024-03-25T09:39:43;4.20;;;2.10;;
14191;SDS011;7177;48.572;7.838;2024-03-25T09:42:08;9.43;;;2.17;;
14191;SDS011;7177;48.572;7.838;2024-03-25T09:44:39;4.60;;;2.20;;
14191;SDS011;7177;48.572;7.838;2024-03-25T09:47:05;3.37;;;2.07;;
14191;SDS011;7177;48.572;7.838;2024-03-25T09:49:32;3.70;;;1.90;;
14191;SDS011;7177;48.572;7.838;2024-03-25T09:51:58;4.80;;;2.40;;
14191;SDS011;7177;48.572;7.838;2024-03-25T09:54:24;6.53;;;2.33;;
14191;SDS011;7177;48.572;7.838;2024-03-25T09:56:50;3.87;;;2.03;;
14191;SDS011;7177;48.572;7.838;2024-03-25T09:59:16;4.23;;;2.10;;
14191;SDS011;7177;48.572;7.838;2024-03-25T10:01:43;3.63;;;1.80;;
14191;SDS011;7177;48.572;7.838;2024-03-25T10:04:08;6.53;;;2.00;;
14191;SDS011;7177;48.572;7.838;2024-03-25T10:06:34;3.07;;;1.80;;
14191;SDS011;7177;48.572;7.838;2024-03-25T10:09:03;4.07;;;1.50;;
14191;SDS011;7177;48.572;7.838;2024-03-25T10:11:30;3.87;;;1.90;;
14191;SDS011;7177;48.572;7.838;2024-03-25T10:14:00;4.47;;;1.50;;
14191;SDS011;7177;48.572;7.838;2024-03-25T10:16:28;4.27;;;2.13;;
14191;SDS011;7177;48.572;7.838;2024-03-25T10:18:54;2.80;;;1.70;;
14191;SDS011;7177;48.572;7.838;2024-03-25T10:21:20;3.57;;;1.70;;
14191;SDS011;7177;48.572;7.838;2024-03-25T10:23:46;4.37;;;1.70;;
14191;SDS011;7177;48.572;7.838;2024-03-25T10:26:29;3.53;;;1.87;;
14191;SDS011;7177;48.572;7.838;2024-03-25T10:29:06;2.50;;;1.50;;
14191;SDS011;7177;48.572;7.838;2024-03-25T10:31:32;3.50;;;1.60;;
14191;SDS011;7177;48.572;7.838;2024-03-25T10:33:58;5.13;;;1.80;;
14191;SDS011;7177;48.572;7.838;2024-03-25T10:36:25;3.73;;;1.90;;
14191;SDS011;7177;48.572;7.838;2024-03-25T10:38:57;3.00;;;1.70;;
14191;SDS011;7177;48.572;7.838;2024-03-25T10:41:27;5.83;;;1.80;;
14191;SDS011;7177;48.572;7.838;2024-03-25T10:43:54;8.30;;;2.10;;
14191;SDS011;7177;48.572;7.838;2024-03-25T10:46:22;2.70;;;1.60;;
14191;SDS011;7177;48.572;7.838;2024-03-25T10:48:52;3.97;;;1.90;;
14191;SDS011;7177;48.572;7.838;2024-03-25T10:51:20;3.17;;;1.77;;
14191;SDS011;7177;48.572;7.838;2024-03-25T10:53:48;3.93;;;1.70;;
14191;SDS011;7177;48.572;7.838;2024-03-25T10:56:17;5.83;;;1.93;;
14191;SDS011;7177;48.572;7.838;2024-03-25T10:58:50;3.50;;;1.73;;
14191;SDS011;7177;48.572;7.838;2024-03-25T11:01:17;4.10;;;1.97;;
14191;SDS011;7177;48.572;7.838;2024-03-25T11:03:44;4.27;;;2.00;;
14191;SDS011;7177;48.572;7.838;2024-03-25T11:06:13;6.53;;;3.33;;
14191;SDS011;7177;48.572;7.838;2024-03-25T11:08:39;4.27;;;1.80;;
14191;SDS011;7177;48.572;7.838;2024-03-25T11:11:06;5.17;;;2.00;;
14191;SDS011;7177;48.572;7.838;2024-03-25T11:13:33;6.50;;;1.97;;
14191;SDS011;7177;48.572;7.838;2024-03-25T11:15:59;3.67;;;1.97;;
14191;SDS011;7177;48.572;7.838;2024-03-25T11:18:26;3.70;;;1.80;;
14191;SDS011;7177;48.572;7.838;2024-03-25T11:21:02;4.67;;;1.93;;
14191;SDS011;7177;48.572;7.838;2024-03-25T11:23:43;3.50;;;1.93;;
14191;SDS011;7177;48.572;7.838;2024-03-25T11:26:19;3.50;;;1.70;;
14191;SDS011;7177;48.572;7.838;2024-03-25T11:28:55;2.67;;;1.80;;
14191;SDS011;7177;48.572;7.838;2024-03-25T11:31:21;3.47;;;1.90;;
14191;SDS011;7177;48.572;7.838;2024-03-25T11:33:50;5.60;;;1.90;;
14191;SDS011;7177;48.572;7.838;2024-03-25T11:36:15;4.00;;;1.77;;
14191;SDS011;7177;48.572;7.838;2024-03-25T11:38:43;2.63;;;1.80;;
14191;SDS011;7177;48.572;7.838;2024-03-25T11:41:09;2.80;;;1.73;;
14191;SDS011;7177;48.572;7.838;2024-03-25T11:43:36;5.00;;;2.10;;
14191;SDS011;7177;48.572;7.838;2024-03-25T11:46:01;5.47;;;1.90;;
14191;SDS011;7177;48.572;7.838;2024-03-25T11:48:29;2.83;;;1.73;;
14191;SDS011;7177;48.572;7.838;2024-03-25T11:50:54;5.03;;;2.10;;
14191;SDS011;7177;48.572;7.838;2024-03-25T11:53:20;4.27;;;2.10;;
14191;SDS011;7177;48.572;7.838;2024-03-25T11:55:46;4.60;;;2.10;;
14191;SDS011;7177;48.572;7.838;2024-03-25T11:58:12;3.87;;;1.93;;
14191;SDS011;7177;48.572;7.838;2024-03-25T12:00:47;5.47;;;1.90;;
14191;SDS011;7177;48.572;7.838;2024-03-25T12:03:14;3.70;;;1.87;;
14191;SDS011;7177;48.572;7.838;2024-03-25T12:05:43;3.77;;;1.67;;
14191;SDS011;7177;48.572;7.838;2024-03-25T12:08:09;4.17;;;1.90;;
14191;SDS011;7177;48.572;7.838;2024-03-25T12:10:36;3.57;;;1.70;;
14191;SDS011;7177;48.572;7.838;2024-03-25T12:13:21;4.37;;;1.97;;
14191;SDS011;7177;48.572;7.838;2024-03-25T12:15:47;3.60;;;1.70;;
14191;SDS011;7177;48.572;7.838;2024-03-25T12:18:13;3.00;;;1.60;;
14191;SDS011;7177;48.572;7.838;2024-03-25T12:20:39;2.30;;;1.67;;
14191;SDS011;7177;48.572;7.838;2024-03-25T12:23:05;3.83;;;1.60;;
14191;SDS011;7177;48.572;7.838;2024-03-25T12:25:30;3.93;;;2.00;;
14191;SDS011;7177;48.572;7.838;2024-03-25T12:27:56;4.37;;;1.93;;
14191;SDS011;7177;48.572;7.838;2024-03-25T12:30:22;3.57;;;1.53;;
14191;SDS011;7177;48.572;7.838;2024-03-25T12:32:48;4.30;;;1.90;;
14191;SDS011;7177;48.572;7.838;2024-03-25T12:35:14;3.80;;;1.90;;
14191;SDS011;7177;48.572;7.838;2024-03-25T12:37:46;2.40;;;1.53;;
14191;SDS011;7177;48.572;7.838;2024-03-25T12:40:24;4.50;;;1.60;;
14191;SDS011;7177;48.572;7.838;2024-03-25T12:42:54;2.97;;;1.60;;
14191;SDS011;7177;48.572;7.838;2024-03-25T12:45:20;1.93;;;1.50;;
14191;SDS011;7177;48.572;7.838;2024-03-25T12:47:46;2.40;;;1.60;;
14191;SDS011;7177;48.572;7.838;2024-03-25T12:50:11;3.97;;;1.70;;
14191;SDS011;7177;48.572;7.838;2024-03-25T12:52:37;2.90;;;2.00;;
14191;SDS011;7177;48.572;7.838;2024-03-25T12:55:03;3.27;;;1.50;;
14191;SDS011;7177;48.572;7.838;2024-03-25T12:57:28;5.00;;;1.90;;
14191;SDS011;7177;48.572;7.838;2024-03-25T12:59:54;2.60;;;1.80;;
14191;SDS011;7177;48.572;7.838;2024-03-25T13:02:20;5.60;;;2.03;;
14191;SDS011;7177;48.572;7.838;2024-03-25T13:04:45;3.53;;;1.83;;
14191;SDS011;7177;48.572;7.838;2024-03-25T13:07:11;2.23;;;1.63;;
14191;SDS011;7177;48.572;7.838;2024-03-25T13:09:36;5.33;;;1.50;;
14191;SDS011;7177;48.572;7.838;2024-03-25T13:12:02;3.33;;;1.50;;
14191;SDS011;7177;48.572;7.838;2024-03-25T13:14:28;2.47;;;1.50;;
14191;SDS011;7177;48.572;7.838;2024-03-25T13:16:54;5.03;;;2.60;;
14191;SDS011;7177;48.572;7.838;2024-03-25T13:19:20;2.43;;;1.20;;
14191;SDS011;7177;48.572;7.838;2024-03-25T13:21:46;2.40;;;1.77;;
14191;SDS011;7177;48.572;7.838;2024-03-25T13:24:12;2.43;;;1.63;;
14191;SDS011;7177;48.572;7.838;2024-03-25T13:26:38;3.93;;;1.77;;
14191;SDS011;7177;48.572;7.838;2024-03-25T13:29:04;2.90;;;1.50;;
14191;SDS011;7177;48.572;7.838;2024-03-25T13:31:30;6.57;;;1.50;;
14191;SDS011;7177;48.572;7.838;2024-03-25T13:33:55;1.80;;;1.30;;
14191;SDS011;7177;48.572;7.838;2024-03-25T13:36:21;2.87;;;1.27;;
14191;SDS011;7177;48.572;7.838;2024-03-25T13:38:46;1.83;;;1.50;;
14191;SDS011;7177;48.572;7.838;2024-03-25T13:41:12;2.30;;;1.40;;
14191;SDS011;7177;48.572;7.838;2024-03-25T13:43:43;3.03;;;1.50;;
14191;SDS011;7177;48.572;7.838;2024-03-25T13:46:09;4.33;;;1.67;;
14191;SDS011;7177;48.572;7.838;2024-03-25T13:48:37;3.70;;;1.33;;
14191;SDS011;7177;48.572;7.838;2024-03-25T13:51:03;1.63;;;1.20;;
14191;SDS011;7177;48.572;7.838;2024-03-25T13:53:28;3.27;;;1.60;;
14191;SDS011;7177;48.572;7.838;2024-03-25T13:55:54;2.60;;;1.30;;
14191;SDS011;7177;48.572;7.838;2024-03-25T13:58:19;2.20;;;1.30;;
14191;SDS011;7177;48.572;7.838;2024-03-25T14:00:45;3.23;;;1.57;;
14191;SDS011;7177;48.572;7.838;2024-03-25T14:03:11;1.60;;;1.27;;
14191;SDS011;7177;48.572;7.838;2024-03-25T14:05:36;8.37;;;1.60;;
14191;SDS011;7177;48.572;7.838;2024-03-25T14:08:02;2.20;;;1.37;;
14191;SDS011;7177;48.572;7.838;2024-03-25T14:10:28;2.63;;;1.30;;
14191;SDS011;7177;48.572;7.838;2024-03-25T14:12:54;3.17;;;1.30;;
14191;SDS011;7177;48.572;7.838;2024-03-25T14:15:20;2.37;;;1.33;;
14191;SDS011;7177;48.572;7.838;2024-03-25T14:17:46;3.47;;;1.33;;
14191;SDS011;7177;48.572;7.838;2024-03-25T14:20:11;3.00;;;1.40;;
14191;SDS011;7177;48.572;7.838;2024-03-25T14:22:37;1.93;;;1.17;;
14191;SDS011;7177;48.572;7.838;2024-03-25T14:25:02;3.83;;;1.20;;
14191;SDS011;7177;48.572;7.838;2024-03-25T14:27:29;2.83;;;1.40;;
14191;SDS011;7177;48.572;7.838;2024-03-25T14:29:54;2.20;;;1.37;;
14191;SDS011;7177;48.572;7.838;2024-03-25T14:32:20;3.60;;;1.30;;
14191;SDS011;7177;48.572;7.838;2024-03-25T14:34:46;2.80;;;1.10;;
14191;SDS011;7177;48.572;7.838;2024-03-25T14:37:12;1.50;;;1.00;;
14191;SDS011;7177;48.572;7.838;2024-03-25T14:39:38;3.60;;;1.30;;
14191;SDS011;7177;48.572;7.838;2024-03-25T14:42:04;4.07;;;1.40;;
14191;SDS011;7177;48.572;7.838;2024-03-25T14:44:30;3.07;;;1.33;;
14191;SDS011;7177;48.572;7.838;2024-03-25T14:46:56;4.40;;;1.53;;
14191;SDS011;7177;48.572;7.838;2024-03-25T14:49:22;2.10;;;1.50;;
14191;SDS011;7177;48.572;7.838;2024-03-25T14:51:49;4.77;;;2.23;;
14191;SDS011;7177;48.572;7.838;2024-03-25T14:54:14;3.43;;;1.40;;
14191;SDS011;7177;48.572;7.838;2024-03-25T14:56:40;2.13;;;1.30;;